Time;durP1;ratioP1;P1;durP2;ratioP2;P2;SDS_P1;SDS_P2;PMS_P1;PMS_P2;Temp;Humidity;BMP_temperature;BMP_pressure;BME280_temperature;BME280_humidity;BME280_pressure;Samples;Min_cycle;Max_cycle;Signal;HPM_P1;HPM_P2
2021/10/27 00:01:35;;;;;;;110.55;37.40;;;;;;;-2.75;56.58;102334.57;1735180;82;21185;-64
2021/10/27 00:04:09;;;;;;;110.03;41.50;;;;;;;-2.72;56.67;102334.58;1737146;82;21157;-65
2021/10/27 00:06:42;;;;;;;90.10;33.45;;;;;;;-2.66;56.66;102326.45;1743023;82;21193;-64
2021/10/27 00:09:15;;;;;;;63.40;22.22;;;;;;;-2.61;56.53;102322.17;1744114;82;21292;-64
2021/10/27 00:11:49;;;;;;;87.22;29.90;;;;;;;-2.59;56.39;102314.05;1742988;82;21208;-64
2021/10/27 00:14:22;;;;;;;103.35;36.08;;;;;;;-2.60;56.31;102324.72;1744380;82;21304;-65
2021/10/27 00:16:56;;;;;;;162.47;59.60;;;;;;;-2.61;56.22;102328.58;1742889;82;21205;-63
2021/10/27 00:19:29;;;;;;;65.42;26.10;;;;;;;-2.62;56.26;102330.28;1745004;82;21134;-63
2021/10/27 00:22:02;;;;;;;85.80;29.27;;;;;;;-2.62;56.27;102323.02;1742981;82;21296;-62
2021/10/27 00:24:36;;;;;;;93.07;36.17;;;;;;;-2.64;56.39;102329.44;1744208;82;21161;-62
2021/10/27 00:27:09;;;;;;;90.77;35.08;;;;;;;-2.62;56.43;102317.89;1742758;82;21224;-62
2021/10/27 00:29:43;;;;;;;143.17;56.75;;;;;;;-2.63;56.32;102327.73;1744633;82;21209;-62
2021/10/27 00:32:17;;;;;;;158.95;62.03;;;;;;;-2.66;56.17;102325.17;1743172;82;21800;-62
2021/10/27 00:34:49;;;;;;;;;;;;;;;-2.70;56.16;102330.75;1747033;82;21137;-62
2021/10/27 00:37:22;;;;;;;70.67;27.90;;;;;;;-2.74;56.09;102325.17;1742771;82;20229;-63
2021/10/27 00:39:55;;;;;;;78.37;29.15;;;;;;;-2.80;56.15;102320.94;1744575;82;21146;-63
2021/10/27 00:42:28;;;;;;;77.03;30.10;;;;;;;-2.82;56.14;102322.62;1742558;82;21299;-63
2021/10/27 00:45:01;;;;;;;88.17;31.02;;;;;;;-2.82;56.26;102323.90;1744521;82;21149;-63
2021/10/27 00:47:34;;;;;;;97.92;36.93;;;;;;;-2.81;56.26;102322.20;1743283;82;21296;-63
2021/10/27 00:50:08;;;;;;;99.03;36.50;;;;;;;-2.84;56.26;102319.62;1742082;82;21751;-63
2021/10/27 00:52:41;;;;;;;95.25;36.95;;;;;;;-2.89;56.16;102320.09;1742244;82;21347;-63
2021/10/27 00:55:14;;;;;;;95.72;34.80;;;;;;;-2.92;56.21;102320.09;1742809;82;21291;-63
2021/10/27 00:57:49;;;;;;;116.08;46.05;;;;;;;-2.93;56.35;102319.64;1742149;82;21334;-62
2021/10/27 01:00:22;;;;;;;83.22;32.35;;;;;;;-2.95;56.26;102321.36;1741984;82;21188;-63
2021/10/27 01:02:55;;;;;;;90.57;29.35;;;;;;;-2.98;56.31;102317.51;1742675;82;21161;-62
2021/10/27 01:05:29;;;;;;;77.17;27.22;;;;;;;-3.02;56.29;102320.94;1739177;82;21354;-62
2021/10/27 01:08:02;;;;;;;81.35;28.10;;;;;;;-3.07;56.23;102312.39;1735832;82;21882;-63
2021/10/27 01:10:36;;;;;;;129.47;42.95;;;;;;;-3.18;56.24;102310.28;1734330;82;21366;-63
2021/10/27 01:13:09;;;;;;;131.15;45.52;;;;;;;-3.23;56.66;102314.12;1734444;82;21300;-63
2021/10/27 01:15:43;;;;;;;132.82;43.17;;;;;;;-3.23;56.76;102302.59;1734961;82;21192;-63
2021/10/27 01:18:16;;;;;;;146.93;46.90;;;;;;;-3.22;56.84;102305.56;1733984;82;21307;-63
2021/10/27 01:20:49;;;;;;;85.50;31.42;;;;;;;-3.22;56.94;102308.13;1734120;82;21264;-63
2021/10/27 01:23:24;;;;;;;75.67;26.77;;;;;;;-3.22;57.00;102303.00;1732600;82;21296;-63
2021/10/27 01:26:06;;;;;;;71.80;25.15;;;;;;;-3.23;56.86;102297.89;1734971;82;21728;-62
2021/10/27 01:28:42;;;;;;;58.68;22.60;;;;;;;-3.27;56.71;102302.14;1736797;82;21914;-63
2021/10/27 01:31:16;;;;;;;59.48;22.15;;;;;;;-3.31;56.67;102297.02;1736185;82;21799;-63
2021/10/27 01:33:49;;;;;;;55.17;20.25;;;;;;;-3.33;56.65;102288.48;1736218;82;21823;-63
2021/10/27 01:36:22;;;;;;;41.35;18.65;;;;;;;-3.36;56.72;102284.64;1736268;82;21268;-63
2021/10/27 01:38:55;;;;;;;45.50;17.90;;;;;;;-3.39;56.74;102285.94;1735444;82;21276;-63
2021/10/27 01:41:29;;;;;;;50.03;20.02;;;;;;;-3.42;56.84;102284.23;1736015;82;21269;-63
2021/10/27 01:44:03;;;;;;;63.02;22.45;;;;;;;-3.46;56.85;102282.50;1736279;82;21158;-63
2021/10/27 01:46:38;;;;;;;83.25;30.80;;;;;;;-3.51;57.06;102278.66;1734421;82;21149;-63
2021/10/27 01:49:12;;;;;;;76.90;27.35;;;;;;;-3.52;57.33;102274.41;1734902;82;21189;-63
2021/10/27 01:51:45;;;;;;;54.63;20.97;;;;;;;-3.54;57.35;102272.28;1736368;82;21836;-63
2021/10/27 01:54:18;;;;;;;61.80;22.80;;;;;;;-3.57;57.32;102281.65;1716035;82;21296;-63
2021/10/27 01:56:52;;;;;;;42.78;15.55;;;;;;;-3.61;57.46;102276.97;1715856;82;21142;-63
2021/10/27 01:59:25;;;;;;;105.00;32.53;;;;;;;-3.64;57.34;102274.81;1734933;82;21295;-63
2021/10/27 02:02:00;;;;;;;113.45;35.52;;;;;;;-3.70;57.43;102276.92;1734452;82;21236;-64
2021/10/27 02:04:34;;;;;;;105.47;33.67;;;;;;;-3.73;57.83;102279.50;1736160;82;21153;-64
2021/10/27 02:07:07;;;;;;;110.72;33.38;;;;;;;-3.74;58.13;102279.48;1736024;82;21264;-64
2021/10/27 02:09:42;;;;;;;119.75;37.00;;;;;;;-3.72;58.32;102283.75;1735900;82;21268;-63
2021/10/27 02:12:15;;;;;;;119.47;37.50;;;;;;;-3.65;58.37;102281.63;1744013;82;21200;-64
2021/10/27 02:14:48;;;;;;;116.75;35.20;;;;;;;-3.60;58.42;102286.75;1744473;82;21137;-64
2021/10/27 02:17:21;;;;;;;78.12;26.50;;;;;;;-3.58;58.34;102288.47;1744033;82;21308;-63
2021/10/27 02:19:56;;;;;;;111.90;34.92;;;;;;;-3.59;58.18;102288.06;1743095;82;21272;-63
2021/10/27 02:22:28;;;;;;;103.90;35.95;;;;;;;-3.65;58.03;102285.47;1744835;82;21165;-63
2021/10/27 02:25:02;;;;;;;125.92;48.80;;;;;;;-3.67;58.33;102288.45;1744922;82;21188;-63
2021/10/27 02:27:35;;;;;;;134.22;56.28;;;;;;;-3.67;58.43;102295.27;1744133;82;21319;-64
2021/10/27 02:30:09;;;;;;;171.05;72.82;;;;;;;-3.64;58.39;102295.29;1742990;82;21177;-64
2021/10/27 02:32:42;;;;;;;119.28;48.70;;;;;;;-3.65;58.20;102297.41;1744184;82;21386;-63
2021/10/27 02:35:15;;;;;;;77.70;31.12;;;;;;;-3.66;58.10;102294.44;1744534;82;21256;-63
2021/10/27 02:37:48;;;;;;;43.02;19.95;;;;;;;-3.67;58.02;102292.30;1744297;82;21843;-63
2021/10/27 02:40:21;;;;;;;45.95;15.85;;;;;;;-3.70;57.90;102296.12;1744686;82;21269;-63
2021/10/27 02:42:54;;;;;;;48.55;16.65;;;;;;;-3.75;57.85;102291.87;1744552;82;21287;-63
2021/10/27 02:45:27;;;;;;;32.48;12.18;;;;;;;-3.83;57.80;102291.84;1744500;82;21303;-64
2021/10/27 02:48:00;;;;;;;50.58;20.10;;;;;;;-3.87;57.79;102285.02;1744040;82;21289;-63
2021/10/27 02:50:34;;;;;;;53.05;22.32;;;;;;;-3.92;57.79;102285.44;1744761;82;21184;-63
2021/10/27 02:53:07;;;;;;;60.73;21.25;;;;;;;-3.97;57.86;102280.73;1744330;82;21184;-64
2021/10/27 02:55:41;;;;;;;69.20;25.40;;;;;;;-3.99;57.94;102283.70;1743309;82;21296;-64
2021/10/27 02:58:14;;;;;;;77.82;27.27;;;;;;;-4.06;57.88;102280.70;1744165;82;21339;-63
2021/10/27 03:00:47;;;;;;;73.85;26.60;;;;;;;-4.11;58.03;102283.67;1744337;82;21256;-63
2021/10/27 03:03:21;;;;;;;69.20;25.35;;;;;;;-4.15;58.15;102280.65;1744146;82;21327;-64
2021/10/27 03:05:54;;;;;;;63.45;24.12;;;;;;;-4.17;58.25;102278.09;1744184;82;21217;-63
2021/10/27 03:08:27;;;;;;;47.20;17.73;;;;;;;-4.19;58.21;102274.69;1744081;82;21244;-63
2021/10/27 03:11:00;;;;;;;67.22;24.30;;;;;;;-4.17;58.32;102277.23;1742859;82;21364;-63
2021/10/27 03:13:34;;;;;;;62.60;22.27;;;;;;;-4.17;58.24;102272.98;1736292;82;21335;-63
2021/10/27 03:16:07;;;;;;;63.87;23.98;;;;;;;-4.17;58.19;102272.12;1736349;82;21268;-64
2021/10/27 03:18:42;;;;;;;112.65;42.33;;;;;;;-4.18;58.18;102267.42;1735883;82;21296;-63
2021/10/27 03:21:16;;;;;;;78.02;29.55;;;;;;;-4.18;58.17;102267.42;1735946;82;21260;-63
2021/10/27 03:23:49;;;;;;;70.42;28.90;;;;;;;-4.16;58.24;102264.89;1736145;82;21288;-63
2021/10/27 03:26:22;;;;;;;70.62;29.02;;;;;;;-4.14;58.24;102267.89;1736579;82;21804;-63
2021/10/27 03:28:55;;;;;;;53.28;20.30;;;;;;;-4.11;58.16;102270.87;1736309;82;21795;-64
2021/10/27 03:31:28;;;;;;;72.45;28.87;;;;;;;-4.10;58.13;102270.87;1736653;82;21692;-64
2021/10/27 03:34:01;;;;;;;67.15;27.90;;;;;;;-4.10;58.03;102272.16;1735993;82;21149;-63
2021/10/27 03:36:34;;;;;;;43.68;18.60;;;;;;;-4.14;57.93;102269.17;1736133;82;21261;-63
2021/10/27 03:39:08;;;;;;;60.03;22.48;;;;;;;-4.16;57.97;102267.03;1736001;82;21315;-63
2021/10/27 03:41:41;;;;;;;54.05;21.48;;;;;;;-4.21;58.14;102264.88;1736453;82;21259;-63
2021/10/27 03:44:15;;;;;;;55.95;21.68;;;;;;;-4.27;58.35;102271.65;1736098;82;21272;-64
2021/10/27 03:46:49;;;;;;;62.95;21.75;;;;;;;-4.31;58.39;102263.13;1736725;82;21260;-64
2021/10/27 03:49:23;;;;;;;97.15;31.90;;;;;;;-4.30;58.44;102270.38;1735972;82;21172;-64
2021/10/27 03:51:56;;;;;;;113.25;43.68;;;;;;;-4.29;58.47;102266.55;1736260;82;21265;-64
2021/10/27 03:54:31;;;;;;;78.05;31.20;;;;;;;-4.23;58.51;102272.12;1736179;82;21264;-64
2021/10/27 03:57:05;;;;;;;75.40;24.67;;;;;;;-4.21;58.47;102275.11;1736194;82;21269;-64
2021/10/27 03:59:38;;;;;;;67.97;23.47;;;;;;;-4.20;58.53;102269.12;1736038;82;21264;-64
2021/10/27 04:02:11;;;;;;;67.70;24.85;;;;;;;-4.16;58.86;102275.13;1736329;82;21277;-63
2021/10/27 04:04:45;;;;;;;66.92;25.92;;;;;;;-4.11;58.66;102276.00;1736041;82;21279;-64
2021/10/27 04:07:18;;;;;;;81.67;27.30;;;;;;;-4.07;58.69;102279.41;1735656;82;21602;-64
2021/10/27 04:09:51;;;;;;;74.60;27.20;;;;;;;-4.03;58.75;102272.16;1735840;82;21157;-65
2021/10/27 04:12:24;;;;;;;71.30;28.12;;;;;;;-3.98;58.80;102276.86;1736774;82;21247;-64
2021/10/27 04:14:58;;;;;;;83.97;30.20;;;;;;;-3.92;58.69;102276.48;1744281;82;21176;-64
2021/10/27 04:17:32;;;;;;;81.87;30.45;;;;;;;-3.86;58.66;102276.48;1742382;82;21238;-64
2021/10/27 04:20:07;;;;;;;52.80;22.42;;;;;;;-3.73;58.71;102277.37;1744896;82;21310;-65
2021/10/27 04:22:41;;;;;;;88.92;27.35;;;;;;;-3.51;58.70;102281.67;1741489;82;21712;-64
2021/10/27 04:25:13;;;;;;;;;;;;;;;-3.25;58.36;102279.11;1744844;82;21303;-65
2021/10/27 04:27:46;;;;;;;96.22;33.65;;;;;;;-3.01;57.82;102284.22;1738852;82;20300;-65
2021/10/27 04:34:29;;;;;;;97.27;31.65;;;;;;;-2.29;56.82;102269.91;1740867;82;21427;-63
2021/10/27 04:37:04;;;;;;;67.87;26.70;;;;;;;-1.53;55.49;102272.06;1739023;82;21363;-64
2021/10/27 04:39:37;;;;;;;58.95;24.15;;;;;;;-1.02;54.37;102275.48;1740208;82;21599;-64
2021/10/27 04:42:10;;;;;;;66.87;25.90;;;;;;;-0.55;53.16;102274.16;1731452;82;21284;-63
2021/10/27 04:45:05;;;;;;;73.67;27.25;;;;;;;-0.07;52.09;102270.97;1723338;82;21273;-66
2021/10/27 04:47:39;;;;;;;62.85;26.52;;;;;;;0.45;51.00;102274.97;1667503;86;21200;-68
2021/10/27 04:54:21;;;;;;;65.78;24.65;;;;;;;1.47;48.55;102272.76;1666595;86;22036;-66
2021/10/27 05:01:05;;;;;;;83.45;32.33;;;;;;;2.89;45.51;102274.75;1666570;84;21443;-62
2021/10/27 05:07:49;;;;;;;71.33;31.57;;;;;;;4.27;42.38;102269.97;1666935;86;21294;-65
2021/10/27 05:10:22;;;;;;;76.82;31.12;;;;;;;5.12;40.88;102264.13;1666980;86;21184;-60
2021/10/27 05:12:55;;;;;;;65.70;27.95;;;;;;;5.69;39.81;102268.99;1666209;86;21529;-63
2021/10/27 05:15:28;;;;;;;59.30;25.32;;;;;;;6.17;38.79;102263.73;1656612;86;21262;-62
2021/10/27 05:18:01;;;;;;;63.30;23.53;;;;;;;6.65;37.90;102270.91;1656557;86;21404;-65
2021/10/27 05:24:45;;;;;;;67.27;25.37;;;;;;;7.59;36.08;102268.18;1656628;86;21309;-63
2021/10/27 05:27:18;;;;;;;65.85;26.07;;;;;;;8.32;34.92;102271.33;1655649;86;21324;-64
2021/10/27 05:29:52;;;;;;;75.37;33.53;;;;;;;8.78;34.27;102274.27;1656728;86;21258;-65
2021/10/27 05:32:26;;;;;;;74.58;29.92;;;;;;;9.36;33.51;102273.46;1655555;86;21699;-67
2021/10/27 05:39:10;;;;;;;45.55;21.62;;;;;;;10.40;31.91;102277.89;1656922;86;21896;-66
2021/10/27 05:41:49;;;;;;;51.23;24.50;;;;;;;11.26;30.59;102279.39;1655898;86;21650;-67
2021/10/27 05:44:19;;;;;;;49.98;25.02;;;;;;;11.94;29.89;102277.86;1634003;87;21332;-66
2021/10/27 05:46:53;;;;;;;;;;;;;;;12.51;29.08;102282.50;1635456;87;21428;-68
2021/10/27 05:49:37;;;;;;;40.37;19.93;;;;;;;12.98;28.38;102276.73;1668759;86;20721;-68
2021/10/27 05:58:56;;;;;;;47.23;25.27;;;;;;;14.30;26.29;102265.25;1632820;87;21174;-67
2021/10/27 06:01:29;;;;;;;48.45;28.20;;;;;;;14.76;25.39;102261.36;1633428;87;21400;-69
2021/10/27 06:04:04;;;;;;;49.90;26.10;;;;;;;15.12;24.80;102262.55;1634028;87;21367;-69
2021/10/27 06:06:37;;;;;;;;;;;;;;;15.34;24.38;102267.87;1635496;87;21261;-69
2021/10/27 06:09:10;;;;;;;75.32;41.88;;;;;;;15.66;24.16;102269.38;1668384;86;20211;-67
2021/10/27 06:11:44;;;;;;;89.03;46.20;;;;;;;15.98;23.73;102268.13;1633159;87;21372;-69
2021/10/27 06:14:18;;;;;;;64.10;36.10;;;;;;;16.37;23.37;102272.02;1643424;85;22172;-68
2021/10/27 06:16:51;;;;;;;64.40;32.48;;;;;;;16.76;22.89;102273.61;1676480;85;21201;-69
2021/10/27 06:19:25;;;;;;;45.55;23.87;;;;;;;17.28;22.41;102267.89;1676741;85;21927;-68
2021/10/27 06:26:08;;;;;;;43.63;22.35;;;;;;;17.87;21.55;102264.92;1676673;85;21173;-67
2021/10/27 06:48:10;;;;;;;37.58;17.37;;;;;;;20.33;19.27;102251.52;1674635;85;21617;-69
2021/10/27 06:54:39;;;;;;;34.67;17.15;;;;;;;20.62;18.89;102244.64;1648383;87;20319;-68
2021/10/27 06:57:13;;;;;;;37.10;17.57;;;;;;;20.91;18.71;102245.70;1651228;87;21351;-66
2021/10/27 06:59:49;;;;;;;35.83;17.35;;;;;;;21.16;18.22;102240.94;1679580;85;21311;-65
2021/10/27 07:02:47;;;;;;;37.00;17.15;;;;;;;21.20;18.31;102244.95;1679009;85;21272;-66
2021/10/27 07:17:52;;;;;;;29.92;15.85;;;;;;;22.10;17.45;102210.03;1674841;85;21937;-67
2021/10/27 07:20:25;;;;;;;30.57;17.35;;;;;;;22.37;17.35;102215.58;1676237;85;21216;-66
2021/10/27 07:23:08;;;;;;;35.33;17.30;;;;;;;22.41;17.08;102208.91;1675763;85;21495;-70
2021/10/27 07:25:36;;;;;;;34.80;18.00;;;;;;;22.51;17.05;102208.73;1674569;85;21213;-67
2021/10/27 07:28:12;;;;;;;37.15;18.37;;;;;;;22.58;17.01;102205.73;1663730;86;21241;-67
2021/10/27 07:30:47;;;;;;;29.00;15.10;;;;;;;22.70;16.91;102198.59;1648723;87;21351;-67
2021/10/27 07:33:29;;;;;;;28.00;14.90;;;;;;;22.88;16.93;102198.39;1663537;86;21503;-68
2021/10/27 07:41:37;;;;;;;29.55;16.35;;;;;;;23.18;16.53;102183.48;1676108;85;21328;-70
2021/10/27 07:44:16;;;;;;;26.90;14.03;;;;;;;23.64;16.26;102183.17;1663306;86;21345;-66
2021/10/27 07:46:49;;;;;;;27.02;13.72;;;;;;;24.00;16.02;102185.64;1676145;85;21878;-67
2021/10/27 07:49:22;;;;;;;28.15;13.32;;;;;;;24.22;15.68;102184.02;1675549;85;21351;-71
2021/10/27 07:51:57;;;;;;;28.73;13.10;;;;;;;24.44;15.56;102177.80;1676093;85;21335;-69
2021/10/27 07:54:30;;;;;;;29.37;13.93;;;;;;;24.71;15.32;102167.86;1674846;85;21232;-69
2021/10/27 07:57:03;;;;;;;;;;;;;;;24.82;15.19;102166.59;1678701;85;21335;-67
2021/10/27 07:59:36;;;;;;;26.23;13.65;;;;;;;24.99;15.11;102167.59;1633870;87;20419;-72
2021/10/27 08:02:10;;;;;;;22.93;11.90;;;;;;;25.05;14.75;102158.83;1656522;86;21250;-72
2021/10/27 08:04:43;;;;;;;26.62;11.88;;;;;;;25.07;14.65;102160.81;1675101;85;22066;-65
2021/10/27 08:07:17;;;;;;;30.12;11.70;;;;;;;25.10;14.56;102148.89;1676123;85;22131;-68
2021/10/27 08:09:54;;;;;;;28.12;11.80;;;;;;;25.05;14.52;102144.59;1663505;86;21301;-68
2021/10/27 08:12:30;;;;;;;26.45;12.13;;;;;;;25.02;14.58;102132.89;1675968;85;21224;-68
2021/10/27 08:15:03;;;;;;;19.80;11.28;;;;;;;25.12;14.71;102137.47;1674824;85;21230;-68
2021/10/27 08:17:38;;;;;;;26.30;10.82;;;;;;;25.19;14.52;102122.31;1661049;86;21317;-68
2021/10/27 08:24:24;;;;;;;26.30;11.38;;;;;;;25.45;14.36;102121.83;1660911;84;21209;-69
2021/10/27 08:27:06;;;;;;;26.33;12.28;;;;;;;25.39;14.40;102112.64;1661264;86;21480;-68
2021/10/27 08:29:38;;;;;;;29.57;11.68;;;;;;;25.38;14.52;102111.84;1660342;86;21278;-66
2021/10/27 08:32:21;;;;;;;28.83;11.93;;;;;;;25.41;14.36;102116.00;1660247;86;22027;-64
2021/10/27 08:34:53;;;;;;;28.27;11.05;;;;;;;25.40;14.28;102118.34;1660425;86;21258;-68
2021/10/27 08:37:28;;;;;;;20.37;10.95;;;;;;;25.31;14.25;102114.11;1661135;86;21475;-67
2021/10/27 08:40:03;;;;;;;23.92;12.95;;;;;;;25.10;14.40;102110.84;1660683;86;21234;-69
2021/10/27 08:42:36;;;;;;;26.00;11.63;;;;;;;25.04;14.47;102109.41;1661249;86;21881;-67
2021/10/27 08:45:11;;;;;;;27.45;11.33;;;;;;;24.93;14.50;102100.52;1660452;86;21297;-68
2021/10/27 08:47:50;;;;;;;54.85;12.05;;;;;;;24.72;14.61;102096.68;1661276;86;21340;-65
2021/10/27 08:50:25;;;;;;;26.45;11.03;;;;;;;24.46;14.63;102088.25;1660596;86;21248;-68
2021/10/27 08:52:58;;;;;;;25.08;11.65;;;;;;;24.19;14.91;102090.20;1661606;86;21214;-66
2021/10/27 08:55:33;;;;;;;25.85;11.78;;;;;;;23.93;14.97;102083.02;1660490;86;21618;-68
2021/10/27 08:58:06;;;;;;;27.22;11.68;;;;;;;23.44;15.32;102067.30;1661706;86;21379;-69
2021/10/27 09:01:00;;;;;;;27.65;11.10;;;;;;;23.12;15.79;102066.63;1660636;86;21492;-70
2021/10/27 09:03:49;;;;;;;24.50;11.83;;;;;;;23.01;15.93;102058.47;1659401;86;21245;-71
2021/10/27 09:15:08;;;;;;;20.20;9.88;;;;;;;22.01;16.37;102028.33;1660679;86;21214;-66
2021/10/27 10:04:01;;;;;;;14.98;5.40;;;;;;;12.93;25.07;101990.50;1639696;87;20232;-70
2021/10/27 10:05:07;;;;;;;12.80;4.70;;;;;;;11.99;26.04;101987.87;1639654;87;21297;-70
2021/10/27 10:07:42;;;;;;;11.22;4.97;;;;;;;11.73;26.35;101980.89;1641877;87;22034;-71
2021/10/27 10:10:16;;;;;;;12.23;5.47;;;;;;;11.53;26.59;101977.88;1641396;87;21234;-69
2021/10/27 10:12:54;;;;;;;11.33;5.03;;;;;;;11.39;26.96;101966.49;1641063;87;21222;-68
2021/10/27 10:15:28;;;;;;;17.32;8.30;;;;;;;11.24;27.41;101962.73;1640891;87;22137;-67
2021/10/27 10:18:03;;;;;;;19.10;8.95;;;;;;;11.11;27.64;101954.80;1641182;87;21378;-69
2021/10/27 10:20:38;;;;;;;12.68;4.87;;;;;;;11.03;27.72;101953.62;1640831;87;21187;-70
2021/10/27 10:23:26;;;;;;;14.85;5.78;;;;;;;10.94;27.69;101941.92;1687209;84;21177;-66
2021/10/27 10:30:30;;;;;;;14.98;6.00;;;;;;;10.77;28.15;101942.99;1687258;85;21157;-69
2021/10/27 10:37:38;;;;;;;20.30;10.00;;;;;;;10.60;27.94;101939.27;1689332;84;21201;-69
2021/10/27 11:25:10;;;;;;;34.10;12.37;;;;;;;10.50;28.33;101862.70;1641215;84;21218;-68
2021/10/27 11:42:37;;;;;;;12.13;4.75;;;;;;;10.31;28.29;101832.08;1695177;84;21548;-63
2021/10/27 11:45:03;;;;;;;12.45;5.37;;;;;;;10.31;28.37;101825.53;1662305;85;21429;-69
2021/10/27 11:47:42;;;;;;;16.30;6.92;;;;;;;10.31;28.22;101843.39;1640634;87;22220;-68
2021/10/27 11:50:17;;;;;;;18.15;5.67;;;;;;;10.30;28.20;101836.45;1641622;87;21230;-66
2021/10/27 11:53:07;;;;;;;40.23;13.78;;;;;;;10.32;28.40;101837.20;1633668;87;21218;-71
2021/10/27 11:55:43;;;;;;;17.80;6.53;;;;;;;10.34;28.50;101834.51;1654609;84;21344;-68
2021/10/27 11:58:17;;;;;;;12.58;5.65;;;;;;;10.35;28.53;101828.31;1638839;87;21289;-71
2021/10/27 12:01:00;;;;;;;;;;;;;;;10.35;28.03;101819.16;1642317;87;21277;-70
2021/10/27 12:03:40;;;;;;;9.93;5.08;;;;;;;10.33;27.76;101814.02;1639843;87;20814;-70
2021/10/27 12:15:29;;;;;;;20.48;7.17;;;;;;;10.30;27.70;101802.43;1666735;86;21337;-67
2021/10/27 12:18:10;;;;;;;20.77;9.73;;;;;;;10.28;27.62;101795.61;1646995;87;21704;-69
2021/10/27 12:20:47;;;;;;;13.18;5.62;;;;;;;10.24;27.37;101795.44;1646825;87;21314;-67
2021/10/27 12:23:27;;;;;;;11.03;4.97;;;;;;;10.23;27.23;101791.98;1671946;85;21359;-65
2021/10/27 12:26:11;;;;;;;12.53;4.62;;;;;;;10.19;27.18;101797.05;1672172;85;22199;-70
2021/10/27 12:28:43;;;;;;;9.90;5.03;;;;;;;10.17;27.24;101794.15;1670986;85;21236;-71
2021/10/27 12:31:28;;;;;;;12.20;4.50;;;;;;;10.14;27.35;101796.02;1670768;85;21242;-70
2021/10/27 12:34:02;;;;;;;10.90;4.90;;;;;;;10.13;27.42;101794.80;1671963;85;21487;-69
2021/10/27 12:36:39;;;;;;;20.00;8.10;;;;;;;10.13;27.21;101790.87;1652617;85;21233;-70
2021/10/27 12:39:31;;;;;;;15.48;5.17;;;;;;;10.12;27.28;101788.74;1671154;85;21362;-68
2021/10/27 12:42:03;;;;;;;15.60;7.58;;;;;;;10.09;27.41;101782.35;1668989;85;21394;-66
2021/10/27 12:44:54;;;;;;;11.40;5.75;;;;;;;10.07;27.23;101778.15;1671588;85;22155;-64
2021/10/27 12:47:39;;;;;;;21.12;7.40;;;;;;;10.06;27.08;101778.61;1671869;85;21617;-67
2021/10/27 12:50:16;;;;;;;11.28;4.53;;;;;;;10.06;27.02;101772.53;1671448;85;21448;-65
2021/10/27 12:52:54;;;;;;;11.65;4.72;;;;;;;10.02;27.04;101767.97;1672112;85;21333;-69
2021/10/27 12:55:40;;;;;;;18.87;6.72;;;;;;;9.99;27.08;101770.77;1667276;84;21269;-65
2021/10/27 12:58:17;;;;;;;11.78;5.28;;;;;;;9.96;27.18;101776.65;1662482;86;21329;-66
2021/10/27 13:03:58;;;;;;;16.27;6.15;;;;;;;9.87;27.10;101758.45;1662801;86;21646;-63
2021/10/27 13:14:52;;;;;;;9.90;4.97;;;;;;;9.72;27.26;101755.46;1662867;85;21336;-69
2021/10/27 13:17:42;;;;;;;19.67;5.60;;;;;;;9.67;27.41;101749.70;1661609;86;21329;-66
2021/10/27 13:35:43;;;;;;;30.45;11.90;;;;;;;9.32;27.56;101748.36;1663468;84;21163;-70
2021/10/27 13:38:21;;;;;;;23.85;11.55;;;;;;;9.20;27.62;101739.95;1663252;85;21509;-68
2021/10/27 13:40:54;;;;;;;22.30;9.93;;;;;;;9.14;27.71;101740.33;1662731;86;21279;-68
2021/10/27 13:43:35;;;;;;;22.48;11.15;;;;;;;9.07;27.73;101737.23;1662812;86;21337;-70
2021/10/27 13:46:26;;;;;;;30.85;15.10;;;;;;;9.02;27.86;101739.28;1663424;85;22141;-67
2021/10/27 14:09:52;;;;;;;54.45;27.00;;;;;;;8.35;28.97;101731.87;1711366;83;21289;-65
2021/10/27 14:12:33;;;;;;;42.88;19.40;;;;;;;8.19;29.29;101736.23;1706051;83;21190;-65
2021/10/27 14:58:54;;;;;;;303.12;133.70;;;;;;;6.75;31.60;101739.95;1707980;83;21335;-66
2021/10/27 15:20:53;;;;;;;443.80;176.80;;;;;;;5.67;33.97;101719.95;1697642;84;21559;-66
2021/10/27 15:23:51;;;;;;;233.87;108.70;;;;;;;5.54;34.13;101730.98;1701963;84;21221;-65
2021/10/27 15:29:24;;;;;;;312.95;114.25;;;;;;;5.33;34.46;101724.51;1680140;84;21492;-65
2021/10/27 15:51:46;;;;;;;390.50;190.47;;;;;;;4.59;36.86;101729.42;1703693;84;21308;-63
2021/10/27 15:54:19;;;;;;;373.60;150.90;;;;;;;4.47;36.89;101726.02;1701786;83;21154;-63
2021/10/27 15:56:55;;;;;;;384.18;140.77;;;;;;;4.39;36.99;101728.10;1703256;84;21288;-63
2021/10/27 15:59:29;;;;;;;320.00;120.55;;;;;;;4.31;37.21;101723.22;1703211;84;21181;-63
2021/10/27 16:02:08;;;;;;;228.40;91.35;;;;;;;4.21;37.28;101724.92;1703317;84;21273;-64
2021/10/27 16:04:45;;;;;;;219.77;86.60;;;;;;;4.11;37.47;101726.20;1703320;84;21190;-63
2021/10/27 16:07:19;;;;;;;257.83;100.55;;;;;;;4.03;37.66;101729.09;1703350;84;21261;-63
2021/10/27 16:10:00;;;;;;;377.50;128.68;;;;;;;3.96;37.65;101732.81;1703211;84;21339;-63
2021/10/27 16:12:34;;;;;;;408.53;139.05;;;;;;;3.88;38.03;101724.48;1703299;84;21173;-63
2021/10/27 16:15:20;;;;;;;442.03;149.57;;;;;;;3.78;38.47;101724.42;1703310;84;21270;-63
2021/10/27 16:17:51;;;;;;;469.15;157.67;;;;;;;3.66;38.65;101724.87;1703144;84;21193;-63
2021/10/27 16:20:28;;;;;;;441.77;143.65;;;;;;;3.54;38.74;101720.14;1702612;84;22069;-63
2021/10/27 16:23:07;;;;;;;415.85;136.50;;;;;;;3.45;38.84;101725.22;1702852;84;21331;-63
2021/10/27 16:25:43;;;;;;;466.30;152.85;;;;;;;3.36;39.01;101722.53;1703277;84;21150;-63
2021/10/27 16:28:23;;;;;;;510.17;196.63;;;;;;;3.30;39.24;101716.26;1700625;84;21186;-62
2021/10/27 16:30:57;;;;;;;383.90;146.05;;;;;;;3.17;39.34;101716.75;1702652;84;21394;-64
2021/10/27 16:33:35;;;;;;;428.15;150.47;;;;;;;3.05;39.62;101718.47;1702685;84;21311;-64
2021/10/27 16:36:11;;;;;;;395.15;136.10;;;;;;;2.93;39.86;101711.98;1703104;84;21276;-63
2021/10/27 16:38:47;;;;;;;428.30;146.93;;;;;;;2.84;40.17;101724.38;1701663;84;21716;-63
2021/10/27 16:41:22;;;;;;;429.83;149.97;;;;;;;2.73;40.90;101719.55;1702133;84;21264;-63
2021/10/27 16:43:58;;;;;;;448.28;151.55;;;;;;;2.62;41.25;101728.98;1702814;84;21819;-63
2021/10/27 16:46:33;;;;;;;409.27;146.00;;;;;;;2.53;41.64;101729.25;1703030;84;21154;-63
2021/10/27 16:49:16;;;;;;;428.73;148.68;;;;;;;2.44;42.07;101729.55;1700535;84;22012;-64
2021/10/27 16:51:52;;;;;;;403.23;139.77;;;;;;;2.35;42.23;101727.27;1698042;84;21266;-64
2021/10/27 16:54:27;;;;;;;417.00;144.15;;;;;;;2.30;42.71;101728.29;1699395;84;21229;-63
2021/10/27 16:57:06;;;;;;;455.70;153.12;;;;;;;2.24;42.49;101728.50;1701927;84;21201;-63
2021/10/27 16:59:47;;;;;;;433.90;142.32;;;;;;;2.18;42.69;101731.25;1702350;84;21224;-63
2021/10/27 17:02:20;;;;;;;382.15;127.35;;;;;;;2.11;42.86;101726.73;1703490;84;21304;-63
2021/10/27 17:04:58;;;;;;;406.40;130.60;;;;;;;2.04;42.93;101718.77;1703759;84;21186;-63
2021/10/27 17:07:38;;;;;;;333.10;114.55;;;;;;;1.97;42.99;101721.99;1705431;84;21296;-63
2021/10/27 17:10:18;;;;;;;336.40;122.45;;;;;;;1.89;43.06;101723.95;1703851;84;21359;-64
2021/10/27 17:12:55;;;;;;;297.27;103.70;;;;;;;1.83;43.24;101722.85;1705555;84;21312;-63
2021/10/27 17:15:34;;;;;;;300.48;94.65;;;;;;;1.75;43.32;101732.55;1704059;84;21367;-64
2021/10/27 17:18:12;;;;;;;314.70;103.87;;;;;;;1.67;43.24;101724.64;1705410;84;21185;-64
2021/10/27 17:20:50;;;;;;;368.82;119.72;;;;;;;1.62;43.47;101731.66;1703834;83;21169;-63
2021/10/27 17:23:31;;;;;;;352.50;117.40;;;;;;;1.59;43.76;101738.20;1705224;84;21182;-64
2021/10/27 17:26:06;;;;;;;297.10;107.43;;;;;;;1.54;43.79;101737.47;1705279;84;21268;-62
2021/10/27 17:28:39;;;;;;;296.80;104.75;;;;;;;1.51;43.91;101742.27;1705530;84;21149;-63
2021/10/27 17:31:14;;;;;;;319.50;112.72;;;;;;;1.47;44.13;101748.42;1705231;84;21234;-62
2021/10/27 17:33:53;;;;;;;324.92;112.25;;;;;;;1.44;44.31;101741.19;1705557;84;21170;-61
2021/10/27 17:36:29;;;;;;;305.35;109.25;;;;;;;1.38;44.42;101740.47;1705154;84;21190;-62